Gainesville Regional Airport
KGNV : now visible

Airfield :











YOU CAN JOIN US ON...

 
LOGIN :

Register | Disclaimer

   EN    FR    IT 

 









Legend :    VFR   Marginal VFR   IFR   Intensive IFR   Very Intensive IFR
Visi :
Ceiling :
>= 8 km
>= 3000ft
5 to 8 km
1000 to 3000 ft
1500m to 5 km
500 to 1000 ft
800 to 1500m
200 to 500 ft
< 800m
< 200 ft
Symbols :   Thunderstorms  Fog  Heavy snow  Heavy precipitations  Wind > 20 kt






- Airport Elevation : 152 ft
- IATA code : GNV


KGNV - Gainesville Regional

CURRENT METAR :
  • 210353Z AUTO 28004KT 10SM CLR 17/15 A2999 RMK AO2 SLP153 T01670150

EXPIRED METARs :
  • 210253Z AUTO 00000KT 10SM CLR 18/16 A2997 RMK AO2 SLP147 T01780161 51009
  • 210153Z 00000KT 10SM FEW120 20/16 A2996 RMK AO2 SLP145 T02000161

TAF KGNV
Valid from the 21 at 02:00 until the 22 at 00:00 UTC


210153Z 2102/2124 16005KT P6SM SCT035 SCT050 BKN100
FM210300 18003KT 6SM BR VCSH FEW005 SCT025 OVC050
FM210500 23003KT 5SM BR SCT005 SCT020 BKN030
FM211200 27004KT 6SM BR FEW005 SCT030
FM211400 29008KT P6SM SCT025
FM211800 28013G20KT P6SM FEW040
KZJX FIR / North America



MET'MAP, your aeronautical weather chart ! - Copyright ORBIFLY December 2007 - Disclaimer

ORBIFLY MET'MAP TEAM :

Programming & Development : Alexandra Zaïnal
Concept & original design : Baudouin d'Aumeries
Assistance for programming : Marc-Olivier Méhu
Technical & hardware support : Manuel Goepfert

Contact : metmap@orbifly.com




SOURCES & CREDITS :

   NOAA       Earth
Advisory